sensor_id;sensor_type;location;lat;lon;timestamp;P1;durP1;ratioP1;P2;durP2;ratioP2
8102;SDS011;4094;49.948;11.574;2023-05-02T00:01:22;11.67;;;10.87;;
8102;SDS011;4094;49.948;11.574;2023-05-02T00:03:52;11.07;;;10.03;;
8102;SDS011;4094;49.948;11.574;2023-05-02T00:06:22;11.33;;;10.37;;
8102;SDS011;4094;49.948;11.574;2023-05-02T00:08:51;12.03;;;11.03;;
8102;SDS011;4094;49.948;11.574;2023-05-02T00:11:21;11.00;;;10.20;;
8102;SDS011;4094;49.948;11.574;2023-05-02T00:13:50;11.67;;;10.87;;
8102;SDS011;4094;49.948;11.574;2023-05-02T00:16:21;11.40;;;10.70;;
8102;SDS011;4094;49.948;11.574;2023-05-02T00:18:51;11.13;;;10.33;;
8102;SDS011;4094;49.948;11.574;2023-05-02T00:21:20;11.80;;;10.90;;
8102;SDS011;4094;49.948;11.574;2023-05-02T00:23:49;11.20;;;10.40;;
8102;SDS011;4094;49.948;11.574;2023-05-02T00:26:19;11.67;;;10.77;;
8102;SDS011;4094;49.948;11.574;2023-05-02T00:28:48;11.57;;;10.63;;
8102;SDS011;4094;49.948;11.574;2023-05-02T00:31:19;12.30;;;11.20;;
8102;SDS011;4094;49.948;11.574;2023-05-02T00:33:48;13.13;;;12.10;;
8102;SDS011;4094;49.948;11.574;2023-05-02T00:36:18;11.83;;;10.83;;
8102;SDS011;4094;49.948;11.574;2023-05-02T00:38:47;12.20;;;11.30;;
8102;SDS011;4094;49.948;11.574;2023-05-02T00:41:17;12.17;;;11.27;;
8102;SDS011;4094;49.948;11.574;2023-05-02T00:43:46;12.07;;;11.17;;
8102;SDS011;4094;49.948;11.574;2023-05-02T00:46:16;12.30;;;11.50;;
8102;SDS011;4094;49.948;11.574;2023-05-02T00:48:46;12.57;;;11.67;;
8102;SDS011;4094;49.948;11.574;2023-05-02T00:51:15;12.57;;;11.77;;
8102;SDS011;4094;49.948;11.574;2023-05-02T00:53:45;12.80;;;11.83;;
8102;SDS011;4094;49.948;11.574;2023-05-02T00:56:14;12.10;;;11.30;;
8102;SDS011;4094;49.948;11.574;2023-05-02T00:58:43;12.07;;;11.17;;
8102;SDS011;4094;49.948;11.574;2023-05-02T01:01:17;13.17;;;12.07;;
8102;SDS011;4094;49.948;11.574;2023-05-02T01:03:58;13.17;;;12.13;;
8102;SDS011;4094;49.948;11.574;2023-05-02T01:06:38;12.20;;;11.30;;
8102;SDS011;4094;49.948;11.574;2023-05-02T01:09:21;11.90;;;11.00;;
8102;SDS011;4094;49.948;11.574;2023-05-02T01:11:59;12.30;;;11.40;;
8102;SDS011;4094;49.948;11.574;2023-05-02T01:14:32;12.87;;;11.87;;
8102;SDS011;4094;49.948;11.574;2023-05-02T01:17:04;13.00;;;12.00;;
8102;SDS011;4094;49.948;11.574;2023-05-02T01:19:39;12.57;;;11.57;;
8102;SDS011;4094;49.948;11.574;2023-05-02T01:22:11;12.33;;;11.43;;
8102;SDS011;4094;49.948;11.574;2023-05-02T01:24:42;12.63;;;11.73;;
8102;SDS011;4094;49.948;11.574;2023-05-02T01:27:22;12.63;;;11.70;;
8102;SDS011;4094;49.948;11.574;2023-05-02T01:30:09;11.57;;;10.87;;
8102;SDS011;4094;49.948;11.574;2023-05-02T01:32:40;11.90;;;11.03;;
8102;SDS011;4094;49.948;11.574;2023-05-02T01:35:13;12.23;;;11.43;;
8102;SDS011;4094;49.948;11.574;2023-05-02T01:37:44;12.70;;;11.60;;
8102;SDS011;4094;49.948;11.574;2023-05-02T01:40:15;12.20;;;11.20;;
8102;SDS011;4094;49.948;11.574;2023-05-02T01:42:49;13.33;;;12.23;;
8102;SDS011;4094;49.948;11.574;2023-05-02T01:45:21;12.03;;;11.07;;
8102;SDS011;4094;49.948;11.574;2023-05-02T01:47:53;11.37;;;10.50;;
8102;SDS011;4094;49.948;11.574;2023-05-02T01:50:23;12.20;;;11.30;;
8102;SDS011;4094;49.948;11.574;2023-05-02T01:52:54;12.13;;;11.23;;
8102;SDS011;4094;49.948;11.574;2023-05-02T01:55:26;11.57;;;10.80;;
8102;SDS011;4094;49.948;11.574;2023-05-02T01:57:56;12.60;;;11.70;;
8102;SDS011;4094;49.948;11.574;2023-05-02T02:00:27;12.57;;;11.57;;
8102;SDS011;4094;49.948;11.574;2023-05-02T02:02:58;12.73;;;11.73;;
8102;SDS011;4094;49.948;11.574;2023-05-02T02:05:27;13.57;;;12.57;;
8102;SDS011;4094;49.948;11.574;2023-05-02T02:07:58;13.73;;;12.60;;
8102;SDS011;4094;49.948;11.574;2023-05-02T02:10:28;14.07;;;12.97;;
8102;SDS011;4094;49.948;11.574;2023-05-02T02:13:04;12.70;;;11.90;;
8102;SDS011;4094;49.948;11.574;2023-05-02T02:15:40;13.30;;;12.20;;
8102;SDS011;4094;49.948;11.574;2023-05-02T02:18:13;13.27;;;12.17;;
8102;SDS011;4094;49.948;11.574;2023-05-02T02:20:48;13.57;;;12.47;;
8102;SDS011;4094;49.948;11.574;2023-05-02T02:23:21;12.43;;;11.47;;
8102;SDS011;4094;49.948;11.574;2023-05-02T02:25:53;13.33;;;12.33;;
8102;SDS011;4094;49.948;11.574;2023-05-02T02:28:24;12.20;;;11.37;;
8102;SDS011;4094;49.948;11.574;2023-05-02T02:30:56;13.13;;;12.13;;
8102;SDS011;4094;49.948;11.574;2023-05-02T02:33:28;12.30;;;11.50;;
8102;SDS011;4094;49.948;11.574;2023-05-02T02:36:00;11.90;;;11.10;;
8102;SDS011;4094;49.948;11.574;2023-05-02T02:38:41;12.17;;;11.37;;
8102;SDS011;4094;49.948;11.574;2023-05-02T02:41:17;12.30;;;11.40;;
8102;SDS011;4094;49.948;11.574;2023-05-02T02:43:52;12.70;;;11.80;;
8102;SDS011;4094;49.948;11.574;2023-05-02T02:46:46;12.20;;;11.37;;
8102;SDS011;4094;49.948;11.574;2023-05-02T02:49:21;13.33;;;12.23;;
8102;SDS011;4094;49.948;11.574;2023-05-02T02:52:02;12.30;;;11.30;;
8102;SDS011;4094;49.948;11.574;2023-05-02T02:54:38;12.83;;;11.93;;
8102;SDS011;4094;49.948;11.574;2023-05-02T02:57:14;13.27;;;12.27;;
8102;SDS011;4094;49.948;11.574;2023-05-02T02:59:50;12.73;;;11.83;;
8102;SDS011;4094;49.948;11.574;2023-05-02T03:02:29;13.00;;;12.03;;
8102;SDS011;4094;49.948;11.574;2023-05-02T03:05:00;12.43;;;11.63;;
8102;SDS011;4094;49.948;11.574;2023-05-02T03:07:31;12.80;;;11.93;;
8102;SDS011;4094;49.948;11.574;2023-05-02T03:10:02;13.80;;;12.90;;
8102;SDS011;4094;49.948;11.574;2023-05-02T03:12:34;13.53;;;12.60;;
8102;SDS011;4094;49.948;11.574;2023-05-02T03:15:07;12.87;;;11.97;;
8102;SDS011;4094;49.948;11.574;2023-05-02T03:17:48;12.77;;;11.87;;
8102;SDS011;4094;49.948;11.574;2023-05-02T03:20:17;12.93;;;11.97;;
8102;SDS011;4094;49.948;11.574;2023-05-02T03:22:48;12.80;;;11.80;;
8102;SDS011;4094;49.948;11.574;2023-05-02T03:25:17;12.33;;;11.57;;
8102;SDS011;4094;49.948;11.574;2023-05-02T03:27:48;13.20;;;12.10;;
8102;SDS011;4094;49.948;11.574;2023-05-02T03:30:18;13.57;;;12.67;;
8102;SDS011;4094;49.948;11.574;2023-05-02T03:32:49;13.77;;;12.77;;
8102;SDS011;4094;49.948;11.574;2023-05-02T03:35:19;14.27;;;13.00;;
8102;SDS011;4094;49.948;11.574;2023-05-02T03:37:50;13.97;;;12.97;;
8102;SDS011;4094;49.948;11.574;2023-05-02T03:40:20;13.63;;;12.53;;
8102;SDS011;4094;49.948;11.574;2023-05-02T03:42:49;13.80;;;12.60;;
8102;SDS011;4094;49.948;11.574;2023-05-02T03:45:25;13.37;;;12.17;;
8102;SDS011;4094;49.948;11.574;2023-05-02T03:47:56;12.90;;;11.90;;
8102;SDS011;4094;49.948;11.574;2023-05-02T03:50:25;12.73;;;11.73;;
8102;SDS011;4094;49.948;11.574;2023-05-02T03:52:55;13.33;;;12.10;;
8102;SDS011;4094;49.948;11.574;2023-05-02T03:55:37;13.37;;;12.40;;
8102;SDS011;4094;49.948;11.574;2023-05-02T03:58:09;13.33;;;12.40;;
8102;SDS011;4094;49.948;11.574;2023-05-02T04:00:39;14.30;;;13.07;;
8102;SDS011;4094;49.948;11.574;2023-05-02T04:03:10;13.90;;;12.80;;
8102;SDS011;4094;49.948;11.574;2023-05-02T04:05:42;13.63;;;12.63;;
8102;SDS011;4094;49.948;11.574;2023-05-02T04:08:13;12.80;;;11.80;;
8102;SDS011;4094;49.948;11.574;2023-05-02T04:10:44;12.93;;;12.03;;
8102;SDS011;4094;49.948;11.574;2023-05-02T04:13:14;12.37;;;11.57;;
8102;SDS011;4094;49.948;11.574;2023-05-02T04:15:46;12.33;;;11.43;;
8102;SDS011;4094;49.948;11.574;2023-05-02T04:18:21;12.57;;;11.63;;
8102;SDS011;4094;49.948;11.574;2023-05-02T04:20:51;13.20;;;12.20;;
8102;SDS011;4094;49.948;11.574;2023-05-02T04:23:23;13.00;;;12.07;;
8102;SDS011;4094;49.948;11.574;2023-05-02T04:25:57;13.60;;;12.60;;
8102;SDS011;4094;49.948;11.574;2023-05-02T04:28:35;13.70;;;12.60;;
8102;SDS011;4094;49.948;11.574;2023-05-02T04:31:04;13.47;;;12.37;;
8102;SDS011;4094;49.948;11.574;2023-05-02T04:33:35;13.60;;;12.60;;
8102;SDS011;4094;49.948;11.574;2023-05-02T04:36:29;13.53;;;12.57;;
8102;SDS011;4094;49.948;11.574;2023-05-02T04:39:00;13.10;;;12.13;;
8102;SDS011;4094;49.948;11.574;2023-05-02T04:41:33;14.00;;;13.00;;
8102;SDS011;4094;49.948;11.574;2023-05-02T04:44:05;14.30;;;13.10;;
8102;SDS011;4094;49.948;11.574;2023-05-02T04:46:36;12.93;;;12.03;;
8102;SDS011;4094;49.948;11.574;2023-05-02T04:49:07;13.23;;;12.23;;
8102;SDS011;4094;49.948;11.574;2023-05-02T04:51:38;13.50;;;12.60;;
8102;SDS011;4094;49.948;11.574;2023-05-02T04:54:07;13.83;;;12.77;;
8102;SDS011;4094;49.948;11.574;2023-05-02T04:56:37;12.97;;;11.97;;
8102;SDS011;4094;49.948;11.574;2023-05-02T04:59:06;13.43;;;12.33;;
8102;SDS011;4094;49.948;11.574;2023-05-02T05:01:36;13.37;;;12.27;;
8102;SDS011;4094;49.948;11.574;2023-05-02T05:04:09;13.73;;;12.63;;
8102;SDS011;4094;49.948;11.574;2023-05-02T05:06:38;13.40;;;12.50;;
8102;SDS011;4094;49.948;11.574;2023-05-02T05:09:08;14.30;;;13.03;;
8102;SDS011;4094;49.948;11.574;2023-05-02T05:11:37;13.20;;;12.30;;
8102;SDS011;4094;49.948;11.574;2023-05-02T05:14:09;12.70;;;11.80;;
8102;SDS011;4094;49.948;11.574;2023-05-02T05:16:41;12.73;;;11.70;;
8102;SDS011;4094;49.948;11.574;2023-05-02T05:19:12;12.77;;;11.77;;
8102;SDS011;4094;49.948;11.574;2023-05-02T05:21:42;13.43;;;12.53;;
8102;SDS011;4094;49.948;11.574;2023-05-02T05:24:13;13.73;;;12.67;;
8102;SDS011;4094;49.948;11.574;2023-05-02T05:26:42;13.63;;;12.63;;
8102;SDS011;4094;49.948;11.574;2023-05-02T05:29:11;14.47;;;13.37;;
8102;SDS011;4094;49.948;11.574;2023-05-02T05:31:42;14.10;;;13.00;;
8102;SDS011;4094;49.948;11.574;2023-05-02T05:34:16;15.03;;;13.93;;
8102;SDS011;4094;49.948;11.574;2023-05-02T05:36:47;15.00;;;13.63;;
8102;SDS011;4094;49.948;11.574;2023-05-02T05:39:17;15.27;;;14.17;;
8102;SDS011;4094;49.948;11.574;2023-05-02T05:41:49;14.83;;;13.70;;
8102;SDS011;4094;49.948;11.574;2023-05-02T05:44:18;20.97;;;18.77;;
8102;SDS011;4094;49.948;11.574;2023-05-02T05:46:49;20.27;;;18.17;;
8102;SDS011;4094;49.948;11.574;2023-05-02T05:49:22;15.67;;;14.47;;
8102;SDS011;4094;49.948;11.574;2023-05-02T05:51:52;14.53;;;13.47;;
8102;SDS011;4094;49.948;11.574;2023-05-02T05:54:22;13.77;;;12.83;;
8102;SDS011;4094;49.948;11.574;2023-05-02T05:56:51;14.33;;;13.33;;
8102;SDS011;4094;49.948;11.574;2023-05-02T05:59:20;14.27;;;13.17;;
8102;SDS011;4094;49.948;11.574;2023-05-02T06:01:50;14.00;;;12.90;;
8102;SDS011;4094;49.948;11.574;2023-05-02T06:04:23;14.63;;;13.53;;
8102;SDS011;4094;49.948;11.574;2023-05-02T06:06:53;14.13;;;13.03;;
8102;SDS011;4094;49.948;11.574;2023-05-02T06:09:23;13.50;;;12.50;;
8102;SDS011;4094;49.948;11.574;2023-05-02T06:11:53;14.73;;;13.53;;
8102;SDS011;4094;49.948;11.574;2023-05-02T06:14:22;14.40;;;13.20;;
8102;SDS011;4094;49.948;11.574;2023-05-02T06:16:52;13.43;;;12.33;;
8102;SDS011;4094;49.948;11.574;2023-05-02T06:19:22;13.97;;;12.77;;
8102;SDS011;4094;49.948;11.574;2023-05-02T06:21:52;14.33;;;13.13;;
8102;SDS011;4094;49.948;11.574;2023-05-02T06:24:22;13.63;;;12.27;;
8102;SDS011;4094;49.948;11.574;2023-05-02T06:26:51;13.10;;;12.10;;
8102;SDS011;4094;49.948;11.574;2023-05-02T06:29:20;13.80;;;12.70;;
8102;SDS011;4094;49.948;11.574;2023-05-02T06:31:53;14.00;;;12.80;;
8102;SDS011;4094;49.948;11.574;2023-05-02T06:34:24;16.67;;;12.60;;
8102;SDS011;4094;49.948;11.574;2023-05-02T06:36:53;13.80;;;12.60;;
8102;SDS011;4094;49.948;11.574;2023-05-02T06:39:23;13.73;;;12.70;;
8102;SDS011;4094;49.948;11.574;2023-05-02T06:41:57;13.57;;;12.47;;
8102;SDS011;4094;49.948;11.574;2023-05-02T06:44:28;14.63;;;13.43;;
8102;SDS011;4094;49.948;11.574;2023-05-02T06:46:58;13.70;;;12.70;;
8102;SDS011;4094;49.948;11.574;2023-05-02T06:49:28;14.20;;;12.80;;
8102;SDS011;4094;49.948;11.574;2023-05-02T06:51:58;14.00;;;12.90;;
8102;SDS011;4094;49.948;11.574;2023-05-02T06:54:27;13.67;;;12.67;;
8102;SDS011;4094;49.948;11.574;2023-05-02T06:56:56;14.53;;;13.43;;
8102;SDS011;4094;49.948;11.574;2023-05-02T06:59:27;13.83;;;12.63;;
8102;SDS011;4094;49.948;11.574;2023-05-02T07:01:56;14.20;;;13.00;;
8102;SDS011;4094;49.948;11.574;2023-05-02T07:04:26;14.23;;;12.87;;
8102;SDS011;4094;49.948;11.574;2023-05-02T07:06:56;13.87;;;12.87;;
8102;SDS011;4094;49.948;11.574;2023-05-02T07:09:26;14.30;;;12.80;;
8102;SDS011;4094;49.948;11.574;2023-05-02T07:11:55;14.17;;;13.07;;
8102;SDS011;4094;49.948;11.574;2023-05-02T07:14:24;15.23;;;13.80;;
8102;SDS011;4094;49.948;11.574;2023-05-02T07:16:54;14.07;;;12.77;;
8102;SDS011;4094;49.948;11.574;2023-05-02T07:19:23;13.27;;;12.27;;
8102;SDS011;4094;49.948;11.574;2023-05-02T07:21:52;13.37;;;12.37;;
8102;SDS011;4094;49.948;11.574;2023-05-02T07:24:23;13.77;;;12.57;;
8102;SDS011;4094;49.948;11.574;2023-05-02T07:26:52;13.47;;;12.37;;
8102;SDS011;4094;49.948;11.574;2023-05-02T07:29:22;13.07;;;12.07;;
8102;SDS011;4094;49.948;11.574;2023-05-02T07:31:51;13.77;;;12.63;;
8102;SDS011;4094;49.948;11.574;2023-05-02T07:34:20;12.73;;;11.63;;
8102;SDS011;4094;49.948;11.574;2023-05-02T07:36:50;12.97;;;11.97;;
8102;SDS011;4094;49.948;11.574;2023-05-02T07:39:19;12.43;;;11.53;;
8102;SDS011;4094;49.948;11.574;2023-05-02T07:41:51;12.77;;;11.77;;
8102;SDS011;4094;49.948;11.574;2023-05-02T07:44:21;12.93;;;11.93;;
8102;SDS011;4094;49.948;11.574;2023-05-02T07:46:51;12.77;;;11.67;;
8102;SDS011;4094;49.948;11.574;2023-05-02T07:49:20;13.23;;;12.03;;
8102;SDS011;4094;49.948;11.574;2023-05-02T07:51:49;13.40;;;12.40;;
8102;SDS011;4094;49.948;11.574;2023-05-02T07:54:21;12.57;;;11.70;;
8102;SDS011;4094;49.948;11.574;2023-05-02T07:56:55;12.93;;;11.90;;
8102;SDS011;4094;49.948;11.574;2023-05-02T07:59:29;13.37;;;12.23;;
8102;SDS011;4094;49.948;11.574;2023-05-02T08:01:59;13.47;;;12.37;;
8102;SDS011;4094;49.948;11.574;2023-05-02T08:04:29;13.33;;;12.13;;
8102;SDS011;4094;49.948;11.574;2023-05-02T08:06:59;12.97;;;11.97;;
8102;SDS011;4094;49.948;11.574;2023-05-02T08:09:28;13.97;;;12.73;;
8102;SDS011;4094;49.948;11.574;2023-05-02T08:11:59;13.13;;;12.13;;
8102;SDS011;4094;49.948;11.574;2023-05-02T08:14:29;12.87;;;11.87;;
8102;SDS011;4094;49.948;11.574;2023-05-02T08:16:58;12.93;;;11.93;;
8102;SDS011;4094;49.948;11.574;2023-05-02T08:19:28;12.60;;;11.70;;
8102;SDS011;4094;49.948;11.574;2023-05-02T08:21:57;12.97;;;11.97;;
8102;SDS011;4094;49.948;11.574;2023-05-02T08:24:27;12.87;;;11.77;;
8102;SDS011;4094;49.948;11.574;2023-05-02T08:26:59;12.13;;;11.20;;
8102;SDS011;4094;49.948;11.574;2023-05-02T08:29:29;12.97;;;12.03;;
8102;SDS011;4094;49.948;11.574;2023-05-02T08:31:59;13.13;;;12.03;;
8102;SDS011;4094;49.948;11.574;2023-05-02T08:34:28;13.07;;;11.97;;
8102;SDS011;4094;49.948;11.574;2023-05-02T08:37:00;13.67;;;12.50;;
8102;SDS011;4094;49.948;11.574;2023-05-02T08:39:31;13.10;;;12.10;;
8102;SDS011;4094;49.948;11.574;2023-05-02T08:42:02;13.00;;;12.00;;
8102;SDS011;4094;49.948;11.574;2023-05-02T08:44:34;13.63;;;12.40;;
8102;SDS011;4094;49.948;11.574;2023-05-02T08:47:04;13.80;;;12.70;;
8102;SDS011;4094;49.948;11.574;2023-05-02T08:49:34;13.53;;;12.60;;
8102;SDS011;4094;49.948;11.574;2023-05-02T08:52:04;13.70;;;12.63;;
8102;SDS011;4094;49.948;11.574;2023-05-02T08:54:36;13.30;;;12.40;;
8102;SDS011;4094;49.948;11.574;2023-05-02T08:57:07;13.50;;;12.37;;
8102;SDS011;4094;49.948;11.574;2023-05-02T08:59:37;13.47;;;12.37;;
8102;SDS011;4094;49.948;11.574;2023-05-02T09:02:08;12.17;;;11.17;;
8102;SDS011;4094;49.948;11.574;2023-05-02T09:04:42;12.83;;;11.90;;
8102;SDS011;4094;49.948;11.574;2023-05-02T09:07:12;12.10;;;11.20;;
8102;SDS011;4094;49.948;11.574;2023-05-02T09:09:41;12.90;;;11.80;;
8102;SDS011;4094;49.948;11.574;2023-05-02T09:12:12;12.83;;;11.87;;
8102;SDS011;4094;49.948;11.574;2023-05-02T09:14:43;12.63;;;11.63;;
8102;SDS011;4094;49.948;11.574;2023-05-02T09:17:12;12.47;;;11.47;;
8102;SDS011;4094;49.948;11.574;2023-05-02T09:19:41;12.10;;;11.20;;
8102;SDS011;4094;49.948;11.574;2023-05-02T09:22:11;12.80;;;11.80;;
8102;SDS011;4094;49.948;11.574;2023-05-02T09:24:53;11.53;;;10.53;;
8102;SDS011;4094;49.948;11.574;2023-05-02T09:27:23;12.57;;;11.57;;
8102;SDS011;4094;49.948;11.574;2023-05-02T09:29:55;11.77;;;10.87;;
8102;SDS011;4094;49.948;11.574;2023-05-02T09:32:49;12.47;;;11.37;;
8102;SDS011;4094;49.948;11.574;2023-05-02T09:35:18;11.97;;;11.07;;
8102;SDS011;4094;49.948;11.574;2023-05-02T09:37:51;11.87;;;10.97;;
8102;SDS011;4094;49.948;11.574;2023-05-02T09:40:21;11.50;;;10.70;;
8102;SDS011;4094;49.948;11.574;2023-05-02T09:42:55;11.27;;;10.40;;
8102;SDS011;4094;49.948;11.574;2023-05-02T09:45:25;11.70;;;10.80;;
8102;SDS011;4094;49.948;11.574;2023-05-02T09:47:54;11.70;;;10.70;;
8102;SDS011;4094;49.948;11.574;2023-05-02T09:50:33;10.23;;;9.53;;
8102;SDS011;4094;49.948;11.574;2023-05-02T09:53:05;11.77;;;10.67;;
8102;SDS011;4094;49.948;11.574;2023-05-02T09:55:38;11.97;;;10.87;;
8102;SDS011;4094;49.948;11.574;2023-05-02T09:58:09;10.77;;;9.97;;
8102;SDS011;4094;49.948;11.574;2023-05-02T10:00:49;10.27;;;9.27;;
8102;SDS011;4094;49.948;11.574;2023-05-02T10:03:19;11.10;;;10.20;;
8102;SDS011;4094;49.948;11.574;2023-05-02T10:05:50;9.77;;;9.07;;
8102;SDS011;4094;49.948;11.574;2023-05-02T10:08:23;11.17;;;10.10;;
8102;SDS011;4094;49.948;11.574;2023-05-02T10:10:54;9.90;;;9.20;;
8102;SDS011;4094;49.948;11.574;2023-05-02T10:13:26;9.93;;;9.17;;
8102;SDS011;4094;49.948;11.574;2023-05-02T10:15:59;10.37;;;9.60;;
8102;SDS011;4094;49.948;11.574;2023-05-02T10:18:31;9.70;;;9.00;;
8102;SDS011;4094;49.948;11.574;2023-05-02T10:21:07;9.50;;;8.73;;
8102;SDS011;4094;49.948;11.574;2023-05-02T10:23:40;9.33;;;8.53;;
8102;SDS011;4094;49.948;11.574;2023-05-02T10:26:11;9.50;;;8.80;;
8102;SDS011;4094;49.948;11.574;2023-05-02T10:28:44;8.63;;;8.00;;
8102;SDS011;4094;49.948;11.574;2023-05-02T10:31:14;9.27;;;8.57;;
8102;SDS011;4094;49.948;11.574;2023-05-02T10:33:44;10.13;;;9.23;;
8102;SDS011;4094;49.948;11.574;2023-05-02T10:36:19;9.00;;;8.30;;
8102;SDS011;4094;49.948;11.574;2023-05-02T10:38:49;8.27;;;7.67;;
8102;SDS011;4094;49.948;11.574;2023-05-02T10:41:19;8.63;;;7.73;;
8102;SDS011;4094;49.948;11.574;2023-05-02T10:43:53;8.00;;;7.40;;
8102;SDS011;4094;49.948;11.574;2023-05-02T10:46:29;7.87;;;7.10;;
8102;SDS011;4094;49.948;11.574;2023-05-02T10:49:00;7.83;;;7.23;;
8102;SDS011;4094;49.948;11.574;2023-05-02T10:51:31;7.10;;;6.70;;
8102;SDS011;4094;49.948;11.574;2023-05-02T10:54:19;8.00;;;7.40;;
8102;SDS011;4094;49.948;11.574;2023-05-02T10:57:02;7.13;;;6.63;;
8102;SDS011;4094;49.948;11.574;2023-05-02T10:59:35;7.50;;;7.00;;
8102;SDS011;4094;49.948;11.574;2023-05-02T11:02:05;6.87;;;6.37;;
8102;SDS011;4094;49.948;11.574;2023-05-02T11:05:16;6.10;;;5.60;;
8102;SDS011;4094;49.948;11.574;2023-05-02T11:07:46;7.60;;;6.90;;
8102;SDS011;4094;49.948;11.574;2023-05-02T11:10:24;6.50;;;6.00;;
8102;SDS011;4094;49.948;11.574;2023-05-02T11:12:58;6.90;;;6.40;;
8102;SDS011;4094;49.948;11.574;2023-05-02T11:18:26;6.43;;;5.97;;
8102;SDS011;4094;49.948;11.574;2023-05-02T11:21:27;7.33;;;6.77;;
8102;SDS011;4094;49.948;11.574;2023-05-02T11:30:06;7.13;;;6.53;;
8102;SDS011;4094;49.948;11.574;2023-05-02T11:35:48;7.30;;;6.57;;
8102;SDS011;4094;49.948;11.574;2023-05-02T11:38:22;7.17;;;6.47;;
8102;SDS011;4094;49.948;11.574;2023-05-02T11:40:55;7.10;;;6.50;;
8102;SDS011;4094;49.948;11.574;2023-05-02T11:43:26;7.53;;;6.67;;
8102;SDS011;4094;49.948;11.574;2023-05-02T11:45:59;7.67;;;7.07;;
8102;SDS011;4094;49.948;11.574;2023-05-02T11:48:29;6.80;;;6.30;;
8102;SDS011;4094;49.948;11.574;2023-05-02T11:51:00;7.00;;;6.40;;
8102;SDS011;4094;49.948;11.574;2023-05-02T11:53:33;6.17;;;5.67;;
8102;SDS011;4094;49.948;11.574;2023-05-02T11:56:08;6.23;;;5.63;;
8102;SDS011;4094;49.948;11.574;2023-05-02T11:58:37;6.67;;;6.10;;
8102;SDS011;4094;49.948;11.574;2023-05-02T12:01:11;6.87;;;6.30;;
8102;SDS011;4094;49.948;11.574;2023-05-02T12:03:41;7.13;;;6.43;;
8102;SDS011;4094;49.948;11.574;2023-05-02T12:06:11;6.13;;;5.73;;
8102;SDS011;4094;49.948;11.574;2023-05-02T12:08:44;6.50;;;6.00;;
8102;SDS011;4094;49.948;11.574;2023-05-02T12:11:13;6.20;;;5.67;;
8102;SDS011;4094;49.948;11.574;2023-05-02T12:13:44;6.33;;;5.83;;
8102;SDS011;4094;49.948;11.574;2023-05-02T12:16:15;6.60;;;6.00;;
8102;SDS011;4094;49.948;11.574;2023-05-02T12:18:45;7.77;;;6.50;;
8102;SDS011;4094;49.948;11.574;2023-05-02T12:21:15;6.37;;;5.87;;
8102;SDS011;4094;49.948;11.574;2023-05-02T12:23:46;6.10;;;5.70;;
8102;SDS011;4094;49.948;11.574;2023-05-02T12:26:16;6.93;;;6.23;;
8102;SDS011;4094;49.948;11.574;2023-05-02T12:28:47;6.57;;;6.03;;
8102;SDS011;4094;49.948;11.574;2023-05-02T12:31:17;6.17;;;5.67;;
8102;SDS011;4094;49.948;11.574;2023-05-02T12:33:47;5.53;;;5.13;;
8102;SDS011;4094;49.948;11.574;2023-05-02T12:36:19;5.83;;;5.43;;
8102;SDS011;4094;49.948;11.574;2023-05-02T12:38:50;5.77;;;5.17;;
8102;SDS011;4094;49.948;11.574;2023-05-02T12:41:29;6.50;;;6.00;;
8102;SDS011;4094;49.948;11.574;2023-05-02T12:44:00;6.07;;;5.57;;
8102;SDS011;4094;49.948;11.574;2023-05-02T12:46:29;5.97;;;5.47;;
8102;SDS011;4094;49.948;11.574;2023-05-02T12:49:05;5.67;;;5.23;;
8102;SDS011;4094;49.948;11.574;2023-05-02T12:51:36;6.03;;;5.53;;
8102;SDS011;4094;49.948;11.574;2023-05-02T12:54:07;5.87;;;5.37;;
8102;SDS011;4094;49.948;11.574;2023-05-02T12:56:47;6.50;;;6.00;;
8102;SDS011;4094;49.948;11.574;2023-05-02T12:59:25;6.77;;;6.17;;
8102;SDS011;4094;49.948;11.574;2023-05-02T13:01:55;6.83;;;6.13;;
8102;SDS011;4094;49.948;11.574;2023-05-02T13:04:32;6.37;;;5.87;;
8102;SDS011;4094;49.948;11.574;2023-05-02T13:07:02;6.93;;;6.40;;
8102;SDS011;4094;49.948;11.574;2023-05-02T13:09:33;6.87;;;6.20;;
8102;SDS011;4094;49.948;11.574;2023-05-02T13:12:02;6.93;;;6.33;;
8102;SDS011;4094;49.948;11.574;2023-05-02T13:14:32;6.93;;;6.33;;
8102;SDS011;4094;49.948;11.574;2023-05-02T13:17:02;7.10;;;6.40;;
8102;SDS011;4094;49.948;11.574;2023-05-02T13:19:31;6.20;;;5.70;;
8102;SDS011;4094;49.948;11.574;2023-05-02T13:22:01;6.83;;;6.13;;
8102;SDS011;4094;49.948;11.574;2023-05-02T13:24:30;6.23;;;5.63;;
8102;SDS011;4094;49.948;11.574;2023-05-02T13:27:00;6.50;;;5.87;;
8102;SDS011;4094;49.948;11.574;2023-05-02T13:29:30;6.20;;;5.70;;
8102;SDS011;4094;49.948;11.574;2023-05-02T13:31:59;6.53;;;6.07;;
8102;SDS011;4094;49.948;11.574;2023-05-02T13:34:29;6.30;;;5.70;;
8102;SDS011;4094;49.948;11.574;2023-05-02T13:36:58;5.97;;;5.40;;
8102;SDS011;4094;49.948;11.574;2023-05-02T13:39:27;7.03;;;5.90;;
8102;SDS011;4094;49.948;11.574;2023-05-02T13:41:57;5.57;;;5.10;;
8102;SDS011;4094;49.948;11.574;2023-05-02T13:44:28;5.50;;;5.00;;
8102;SDS011;4094;49.948;11.574;2023-05-02T13:46:57;5.63;;;5.23;;
8102;SDS011;4094;49.948;11.574;2023-05-02T13:49:26;5.80;;;5.37;;
8102;SDS011;4094;49.948;11.574;2023-05-02T13:51:56;4.90;;;4.60;;
8102;SDS011;4094;49.948;11.574;2023-05-02T13:54:25;4.70;;;4.30;;
8102;SDS011;4094;49.948;11.574;2023-05-02T13:56:55;4.57;;;4.27;;
8102;SDS011;4094;49.948;11.574;2023-05-02T13:59:24;5.00;;;4.60;;
8102;SDS011;4094;49.948;11.574;2023-05-02T14:01:55;4.30;;;4.00;;
8102;SDS011;4094;49.948;11.574;2023-05-02T14:04:25;4.03;;;3.63;;
8102;SDS011;4094;49.948;11.574;2023-05-02T14:06:57;4.10;;;3.70;;
8102;SDS011;4094;49.948;11.574;2023-05-02T14:09:26;4.17;;;3.87;;
8102;SDS011;4094;49.948;11.574;2023-05-02T14:12:02;4.13;;;3.80;;
8102;SDS011;4094;49.948;11.574;2023-05-02T14:14:59;4.33;;;4.03;;
8102;SDS011;4094;49.948;11.574;2023-05-02T14:17:31;4.27;;;3.97;;
8102;SDS011;4094;49.948;11.574;2023-05-02T14:20:00;4.40;;;4.10;;
8102;SDS011;4094;49.948;11.574;2023-05-02T14:22:30;4.07;;;3.87;;
8102;SDS011;4094;49.948;11.574;2023-05-02T14:24:59;4.30;;;4.00;;
8102;SDS011;4094;49.948;11.574;2023-05-02T14:27:28;4.20;;;3.90;;
8102;SDS011;4094;49.948;11.574;2023-05-02T14:29:57;4.77;;;4.10;;
8102;SDS011;4094;49.948;11.574;2023-05-02T14:32:30;4.00;;;3.80;;
8102;SDS011;4094;49.948;11.574;2023-05-02T14:34:59;3.90;;;3.60;;
8102;SDS011;4094;49.948;11.574;2023-05-02T14:37:29;3.53;;;3.33;;
8102;SDS011;4094;49.948;11.574;2023-05-02T14:40:01;3.80;;;3.50;;
8102;SDS011;4094;49.948;11.574;2023-05-02T14:42:31;3.70;;;3.50;;
8102;SDS011;4094;49.948;11.574;2023-05-02T14:45:00;3.30;;;3.10;;
8102;SDS011;4094;49.948;11.574;2023-05-02T14:47:31;4.10;;;3.67;;
8102;SDS011;4094;49.948;11.574;2023-05-02T14:50:01;3.60;;;3.30;;
8102;SDS011;4094;49.948;11.574;2023-05-02T14:52:31;3.70;;;3.20;;
8102;SDS011;4094;49.948;11.574;2023-05-02T14:55:01;3.87;;;3.60;;
8102;SDS011;4094;49.948;11.574;2023-05-02T14:57:31;3.20;;;3.00;;
8102;SDS011;4094;49.948;11.574;2023-05-02T15:00:00;4.30;;;4.00;;
8102;SDS011;4094;49.948;11.574;2023-05-02T15:02:33;4.00;;;3.80;;
8102;SDS011;4094;49.948;11.574;2023-05-02T15:05:02;4.50;;;4.20;;
8102;SDS011;4094;49.948;11.574;2023-05-02T15:07:33;4.10;;;3.80;;
8102;SDS011;4094;49.948;11.574;2023-05-02T15:10:03;4.13;;;3.83;;
8102;SDS011;4094;49.948;11.574;2023-05-02T15:12:32;4.33;;;4.03;;
8102;SDS011;4094;49.948;11.574;2023-05-02T15:15:02;4.30;;;4.00;;
8102;SDS011;4094;49.948;11.574;2023-05-02T15:17:33;4.43;;;4.13;;
8102;SDS011;4094;49.948;11.574;2023-05-02T15:20:03;4.20;;;3.90;;
8102;SDS011;4094;49.948;11.574;2023-05-02T15:22:33;4.20;;;3.90;;